sensor_id;sensor_type;location;lat;lon;timestamp;P1;durP1;ratioP1;P2;durP2;ratioP2
11305;SDS011;5708;50.660;6.778;2023-07-08T00:01:55;12.32;;;7.85;;
11305;SDS011;5708;50.660;6.778;2023-07-08T00:04:20;12.02;;;7.75;;
11305;SDS011;5708;50.660;6.778;2023-07-08T00:06:46;14.27;;;7.50;;
11305;SDS011;5708;50.660;6.778;2023-07-08T00:09:12;14.30;;;8.10;;
11305;SDS011;5708;50.660;6.778;2023-07-08T00:11:37;15.43;;;8.38;;
11305;SDS011;5708;50.660;6.778;2023-07-08T00:14:03;11.75;;;7.03;;
11305;SDS011;5708;50.660;6.778;2023-07-08T00:16:28;10.60;;;6.85;;
11305;SDS011;5708;50.660;6.778;2023-07-08T00:18:54;12.02;;;6.97;;
11305;SDS011;5708;50.660;6.778;2023-07-08T00:21:19;12.38;;;6.93;;
11305;SDS011;5708;50.660;6.778;2023-07-08T00:23:45;14.60;;;7.40;;
11305;SDS011;5708;50.660;6.778;2023-07-08T00:26:15;12.73;;;7.65;;
11305;SDS011;5708;50.660;6.778;2023-07-08T00:28:47;13.25;;;7.35;;
11305;SDS011;5708;50.660;6.778;2023-07-08T00:31:12;15.02;;;8.23;;
11305;SDS011;5708;50.660;6.778;2023-07-08T00:33:39;14.20;;;7.43;;
11305;SDS011;5708;50.660;6.778;2023-07-08T00:36:08;13.10;;;7.57;;
11305;SDS011;5708;50.660;6.778;2023-07-08T00:38:35;14.13;;;7.40;;
11305;SDS011;5708;50.660;6.778;2023-07-08T00:43:36;12.90;;;7.43;;
11305;SDS011;5708;50.660;6.778;2023-07-08T00:48:50;12.30;;;7.35;;
11305;SDS011;5708;50.660;6.778;2023-07-08T00:51:17;12.55;;;7.38;;
11305;SDS011;5708;50.660;6.778;2023-07-08T00:53:44;13.30;;;7.13;;
11305;SDS011;5708;50.660;6.778;2023-07-08T00:56:12;12.73;;;7.85;;
11305;SDS011;5708;50.660;6.778;2023-07-08T00:59:02;12.50;;;7.10;;
11305;SDS011;5708;50.660;6.778;2023-07-08T01:01:28;10.93;;;6.90;;
11305;SDS011;5708;50.660;6.778;2023-07-08T01:06:26;15.20;;;8.05;;
11305;SDS011;5708;50.660;6.778;2023-07-08T01:08:56;13.48;;;7.53;;
11305;SDS011;5708;50.660;6.778;2023-07-08T01:11:23;12.20;;;7.20;;
11305;SDS011;5708;50.660;6.778;2023-07-08T01:13:48;12.77;;;7.88;;
11305;SDS011;5708;50.660;6.778;2023-07-08T01:16:15;12.85;;;7.05;;
11305;SDS011;5708;50.660;6.778;2023-07-08T01:18:41;15.38;;;7.63;;
11305;SDS011;5708;50.660;6.778;2023-07-08T01:21:27;11.77;;;7.18;;
11305;SDS011;5708;50.660;6.778;2023-07-08T01:23:56;12.80;;;6.93;;
11305;SDS011;5708;50.660;6.778;2023-07-08T01:26:22;13.25;;;7.28;;
11305;SDS011;5708;50.660;6.778;2023-07-08T01:28:48;12.15;;;7.70;;
11305;SDS011;5708;50.660;6.778;2023-07-08T01:31:14;14.05;;;7.35;;
11305;SDS011;5708;50.660;6.778;2023-07-08T01:33:39;13.35;;;7.70;;
11305;SDS011;5708;50.660;6.778;2023-07-08T01:36:05;13.68;;;7.68;;
11305;SDS011;5708;50.660;6.778;2023-07-08T01:38:32;12.75;;;7.68;;
11305;SDS011;5708;50.660;6.778;2023-07-08T01:40:58;13.52;;;7.72;;
11305;SDS011;5708;50.660;6.778;2023-07-08T01:43:23;11.85;;;7.57;;
11305;SDS011;5708;50.660;6.778;2023-07-08T01:45:49;11.70;;;7.38;;
11305;SDS011;5708;50.660;6.778;2023-07-08T01:48:19;15.07;;;7.25;;
11305;SDS011;5708;50.660;6.778;2023-07-08T01:50:57;15.40;;;7.68;;
11305;SDS011;5708;50.660;6.778;2023-07-08T01:53:30;13.63;;;7.35;;
11305;SDS011;5708;50.660;6.778;2023-07-08T01:55:59;17.35;;;7.93;;
11305;SDS011;5708;50.660;6.778;2023-07-08T01:58:25;14.85;;;7.57;;
11305;SDS011;5708;50.660;6.778;2023-07-08T02:00:51;12.55;;;6.78;;
11305;SDS011;5708;50.660;6.778;2023-07-08T02:03:17;13.32;;;7.35;;
11305;SDS011;5708;50.660;6.778;2023-07-08T02:05:42;13.18;;;7.07;;
11305;SDS011;5708;50.660;6.778;2023-07-08T02:08:08;11.02;;;6.93;;
11305;SDS011;5708;50.660;6.778;2023-07-08T02:10:34;12.27;;;7.57;;
11305;SDS011;5708;50.660;6.778;2023-07-08T02:12:59;13.82;;;7.75;;
11305;SDS011;5708;50.660;6.778;2023-07-08T02:15:25;13.07;;;7.55;;
11305;SDS011;5708;50.660;6.778;2023-07-08T02:17:51;13.07;;;7.60;;
11305;SDS011;5708;50.660;6.778;2023-07-08T02:20:16;12.63;;;7.10;;
11305;SDS011;5708;50.660;6.778;2023-07-08T02:22:42;14.40;;;7.60;;
11305;SDS011;5708;50.660;6.778;2023-07-08T02:25:07;12.50;;;7.57;;
11305;SDS011;5708;50.660;6.778;2023-07-08T02:27:34;12.55;;;6.90;;
11305;SDS011;5708;50.660;6.778;2023-07-08T02:30:00;13.50;;;7.70;;
11305;SDS011;5708;50.660;6.778;2023-07-08T02:32:25;12.50;;;7.40;;
11305;SDS011;5708;50.660;6.778;2023-07-08T02:34:51;14.43;;;7.22;;
11305;SDS011;5708;50.660;6.778;2023-07-08T02:37:17;14.30;;;7.05;;
11305;SDS011;5708;50.660;6.778;2023-07-08T02:39:42;11.88;;;7.30;;
11305;SDS011;5708;50.660;6.778;2023-07-08T02:42:08;13.73;;;7.78;;
11305;SDS011;5708;50.660;6.778;2023-07-08T02:44:34;12.57;;;7.97;;
11305;SDS011;5708;50.660;6.778;2023-07-08T02:46:59;14.10;;;7.20;;
11305;SDS011;5708;50.660;6.778;2023-07-08T02:49:25;12.30;;;7.20;;
11305;SDS011;5708;50.660;6.778;2023-07-08T02:51:50;11.05;;;7.00;;
11305;SDS011;5708;50.660;6.778;2023-07-08T02:54:16;14.13;;;7.57;;
11305;SDS011;5708;50.660;6.778;2023-07-08T02:56:42;13.13;;;7.68;;
11305;SDS011;5708;50.660;6.778;2023-07-08T02:59:07;12.73;;;7.45;;
11305;SDS011;5708;50.660;6.778;2023-07-08T03:01:33;12.98;;;7.55;;
11305;SDS011;5708;50.660;6.778;2023-07-08T03:04:09;12.02;;;7.72;;
11305;SDS011;5708;50.660;6.778;2023-07-08T03:06:41;14.57;;;7.97;;
11305;SDS011;5708;50.660;6.778;2023-07-08T03:09:08;12.85;;;7.63;;
11305;SDS011;5708;50.660;6.778;2023-07-08T03:11:33;12.60;;;7.07;;
11305;SDS011;5708;50.660;6.778;2023-07-08T03:13:59;13.40;;;7.93;;
11305;SDS011;5708;50.660;6.778;2023-07-08T03:16:24;12.68;;;7.75;;
11305;SDS011;5708;50.660;6.778;2023-07-08T03:18:49;12.85;;;7.57;;
11305;SDS011;5708;50.660;6.778;2023-07-08T03:21:15;12.48;;;7.20;;
11305;SDS011;5708;50.660;6.778;2023-07-08T03:23:41;12.43;;;7.57;;
11305;SDS011;5708;50.660;6.778;2023-07-08T03:26:07;16.63;;;7.72;;
11305;SDS011;5708;50.660;6.778;2023-07-08T03:28:34;13.40;;;7.43;;
11305;SDS011;5708;50.660;6.778;2023-07-08T03:30:59;11.95;;;7.45;;
11305;SDS011;5708;50.660;6.778;2023-07-08T03:33:25;13.23;;;7.38;;
11305;SDS011;5708;50.660;6.778;2023-07-08T03:35:50;15.50;;;8.38;;
11305;SDS011;5708;50.660;6.778;2023-07-08T03:38:15;18.70;;;7.72;;
11305;SDS011;5708;50.660;6.778;2023-07-08T03:40:41;16.48;;;8.02;;
11305;SDS011;5708;50.660;6.778;2023-07-08T03:43:06;13.48;;;7.32;;
11305;SDS011;5708;50.660;6.778;2023-07-08T03:45:32;13.98;;;7.43;;
11305;SDS011;5708;50.660;6.778;2023-07-08T03:47:57;12.88;;;7.68;;
11305;SDS011;5708;50.660;6.778;2023-07-08T03:50:23;11.27;;;7.07;;
11305;SDS011;5708;50.660;6.778;2023-07-08T03:52:50;13.52;;;8.25;;
11305;SDS011;5708;50.660;6.778;2023-07-08T03:55:16;13.45;;;7.22;;
11305;SDS011;5708;50.660;6.778;2023-07-08T03:57:42;14.15;;;7.55;;
11305;SDS011;5708;50.660;6.778;2023-07-08T04:00:08;12.35;;;7.55;;
11305;SDS011;5708;50.660;6.778;2023-07-08T04:02:43;13.85;;;7.97;;
11305;SDS011;5708;50.660;6.778;2023-07-08T04:05:16;12.27;;;7.55;;
11305;SDS011;5708;50.660;6.778;2023-07-08T04:07:44;17.58;;;7.70;;
11305;SDS011;5708;50.660;6.778;2023-07-08T04:10:10;14.07;;;7.32;;
11305;SDS011;5708;50.660;6.778;2023-07-08T04:12:36;14.82;;;7.40;;
11305;SDS011;5708;50.660;6.778;2023-07-08T04:15:01;12.80;;;7.78;;
11305;SDS011;5708;50.660;6.778;2023-07-08T04:17:27;15.68;;;7.72;;
11305;SDS011;5708;50.660;6.778;2023-07-08T04:19:53;14.02;;;8.10;;
11305;SDS011;5708;50.660;6.778;2023-07-08T04:22:19;15.50;;;7.80;;
11305;SDS011;5708;50.660;6.778;2023-07-08T04:24:44;14.10;;;7.38;;
11305;SDS011;5708;50.660;6.778;2023-07-08T04:27:12;13.63;;;7.43;;
11305;SDS011;5708;50.660;6.778;2023-07-08T04:29:39;11.90;;;7.15;;
11305;SDS011;5708;50.660;6.778;2023-07-08T04:32:04;12.18;;;7.32;;
11305;SDS011;5708;50.660;6.778;2023-07-08T04:34:30;13.75;;;7.78;;
11305;SDS011;5708;50.660;6.778;2023-07-08T04:36:55;14.88;;;7.88;;
11305;SDS011;5708;50.660;6.778;2023-07-08T04:39:20;12.63;;;7.63;;
11305;SDS011;5708;50.660;6.778;2023-07-08T04:41:46;15.35;;;7.72;;
11305;SDS011;5708;50.660;6.778;2023-07-08T04:44:11;12.95;;;7.75;;
11305;SDS011;5708;50.660;6.778;2023-07-08T04:46:40;12.07;;;7.40;;
11305;SDS011;5708;50.660;6.778;2023-07-08T04:49:08;16.67;;;7.88;;
11305;SDS011;5708;50.660;6.778;2023-07-08T04:51:38;15.23;;;8.07;;
11305;SDS011;5708;50.660;6.778;2023-07-08T04:54:04;13.68;;;7.28;;
11305;SDS011;5708;50.660;6.778;2023-07-08T04:56:40;14.57;;;8.20;;
11305;SDS011;5708;50.660;6.778;2023-07-08T04:59:10;13.57;;;7.63;;
11305;SDS011;5708;50.660;6.778;2023-07-08T05:01:37;12.07;;;7.70;;
11305;SDS011;5708;50.660;6.778;2023-07-08T05:04:03;14.15;;;8.00;;
11305;SDS011;5708;50.660;6.778;2023-07-08T05:06:30;12.75;;;7.60;;
11305;SDS011;5708;50.660;6.778;2023-07-08T05:08:55;13.05;;;8.13;;
11305;SDS011;5708;50.660;6.778;2023-07-08T05:11:21;13.73;;;7.40;;
11305;SDS011;5708;50.660;6.778;2023-07-08T05:13:46;12.32;;;7.93;;
11305;SDS011;5708;50.660;6.778;2023-07-08T05:16:11;13.57;;;7.80;;
11305;SDS011;5708;50.660;6.778;2023-07-08T05:18:37;16.98;;;7.78;;
11305;SDS011;5708;50.660;6.778;2023-07-08T05:21:02;13.30;;;7.75;;
11305;SDS011;5708;50.660;6.778;2023-07-08T05:23:28;12.55;;;7.80;;
11305;SDS011;5708;50.660;6.778;2023-07-08T05:25:53;12.80;;;7.90;;
11305;SDS011;5708;50.660;6.778;2023-07-08T05:28:19;15.02;;;8.50;;
11305;SDS011;5708;50.660;6.778;2023-07-08T05:30:46;13.93;;;8.18;;
11305;SDS011;5708;50.660;6.778;2023-07-08T05:33:12;12.35;;;7.80;;
11305;SDS011;5708;50.660;6.778;2023-07-08T05:35:38;13.98;;;7.97;;
11305;SDS011;5708;50.660;6.778;2023-07-08T05:38:03;15.75;;;8.00;;
11305;SDS011;5708;50.660;6.778;2023-07-08T05:40:28;15.65;;;8.18;;
11305;SDS011;5708;50.660;6.778;2023-07-08T05:42:54;13.20;;;7.75;;
11305;SDS011;5708;50.660;6.778;2023-07-08T05:45:19;14.25;;;7.35;;
11305;SDS011;5708;50.660;6.778;2023-07-08T05:47:44;11.85;;;7.25;;
11305;SDS011;5708;50.660;6.778;2023-07-08T05:50:10;15.32;;;8.85;;
11305;SDS011;5708;50.660;6.778;2023-07-08T05:52:35;13.50;;;8.20;;
11305;SDS011;5708;50.660;6.778;2023-07-08T05:55:00;15.27;;;7.82;;
11305;SDS011;5708;50.660;6.778;2023-07-08T05:57:26;13.25;;;8.13;;
11305;SDS011;5708;50.660;6.778;2023-07-08T05:59:51;15.82;;;8.05;;
11305;SDS011;5708;50.660;6.778;2023-07-08T06:02:17;12.30;;;7.78;;
11305;SDS011;5708;50.660;6.778;2023-07-08T06:04:44;15.30;;;9.02;;
11305;SDS011;5708;50.660;6.778;2023-07-08T06:07:10;14.98;;;8.23;;
11305;SDS011;5708;50.660;6.778;2023-07-08T06:09:35;15.85;;;8.30;;
11305;SDS011;5708;50.660;6.778;2023-07-08T06:12:00;14.05;;;7.53;;
11305;SDS011;5708;50.660;6.778;2023-07-08T06:14:26;13.93;;;8.43;;
11305;SDS011;5708;50.660;6.778;2023-07-08T06:16:52;13.05;;;8.10;;
11305;SDS011;5708;50.660;6.778;2023-07-08T06:19:19;12.63;;;7.97;;
11305;SDS011;5708;50.660;6.778;2023-07-08T06:21:45;13.82;;;7.70;;
11305;SDS011;5708;50.660;6.778;2023-07-08T06:24:10;16.30;;;8.10;;
11305;SDS011;5708;50.660;6.778;2023-07-08T06:26:35;13.02;;;8.15;;
11305;SDS011;5708;50.660;6.778;2023-07-08T06:29:01;13.98;;;8.48;;
11305;SDS011;5708;50.660;6.778;2023-07-08T06:31:27;14.25;;;7.80;;
11305;SDS011;5708;50.660;6.778;2023-07-08T06:33:53;13.05;;;7.97;;
11305;SDS011;5708;50.660;6.778;2023-07-08T06:36:18;16.10;;;8.27;;
11305;SDS011;5708;50.660;6.778;2023-07-08T06:38:44;13.20;;;8.18;;
11305;SDS011;5708;50.660;6.778;2023-07-08T06:41:10;12.25;;;7.88;;
11305;SDS011;5708;50.660;6.778;2023-07-08T06:43:35;13.43;;;7.43;;
11305;SDS011;5708;50.660;6.778;2023-07-08T06:46:00;13.80;;;7.43;;
11305;SDS011;5708;50.660;6.778;2023-07-08T06:48:26;13.52;;;7.45;;
11305;SDS011;5708;50.660;6.778;2023-07-08T06:50:51;12.48;;;8.10;;
11305;SDS011;5708;50.660;6.778;2023-07-08T06:53:17;12.15;;;7.22;;
11305;SDS011;5708;50.660;6.778;2023-07-08T06:55:45;13.93;;;7.93;;
11305;SDS011;5708;50.660;6.778;2023-07-08T06:58:11;14.48;;;8.13;;
11305;SDS011;5708;50.660;6.778;2023-07-08T07:00:37;11.95;;;6.93;;
11305;SDS011;5708;50.660;6.778;2023-07-08T07:03:02;16.92;;;8.30;;
11305;SDS011;5708;50.660;6.778;2023-07-08T07:05:28;13.63;;;7.30;;
11305;SDS011;5708;50.660;6.778;2023-07-08T07:07:53;13.23;;;7.20;;
11305;SDS011;5708;50.660;6.778;2023-07-08T07:10:19;12.10;;;7.90;;
11305;SDS011;5708;50.660;6.778;2023-07-08T07:12:44;15.43;;;8.88;;
11305;SDS011;5708;50.660;6.778;2023-07-08T07:15:10;13.38;;;7.78;;
11305;SDS011;5708;50.660;6.778;2023-07-08T07:17:35;13.45;;;7.20;;
11305;SDS011;5708;50.660;6.778;2023-07-08T07:20:01;12.85;;;7.50;;
11305;SDS011;5708;50.660;6.778;2023-07-08T07:22:28;12.15;;;7.30;;
11305;SDS011;5708;50.660;6.778;2023-07-08T07:24:53;11.85;;;7.75;;
11305;SDS011;5708;50.660;6.778;2023-07-08T07:27:19;11.80;;;7.80;;
11305;SDS011;5708;50.660;6.778;2023-07-08T07:29:46;12.77;;;7.60;;
11305;SDS011;5708;50.660;6.778;2023-07-08T07:32:16;11.73;;;7.28;;
11305;SDS011;5708;50.660;6.778;2023-07-08T07:34:42;13.85;;;7.32;;
11305;SDS011;5708;50.660;6.778;2023-07-08T07:37:14;18.27;;;7.78;;
11305;SDS011;5708;50.660;6.778;2023-07-08T07:39:41;12.50;;;7.88;;
11305;SDS011;5708;50.660;6.778;2023-07-08T07:42:06;13.82;;;7.00;;
11305;SDS011;5708;50.660;6.778;2023-07-08T07:44:38;11.60;;;6.43;;
11305;SDS011;5708;50.660;6.778;2023-07-08T07:47:05;10.55;;;6.40;;
11305;SDS011;5708;50.660;6.778;2023-07-08T07:49:31;13.65;;;7.18;;
11305;SDS011;5708;50.660;6.778;2023-07-08T07:51:56;14.13;;;6.72;;
11305;SDS011;5708;50.660;6.778;2023-07-08T07:54:22;13.65;;;7.40;;
11305;SDS011;5708;50.660;6.778;2023-07-08T07:56:47;10.45;;;6.60;;
11305;SDS011;5708;50.660;6.778;2023-07-08T07:59:13;9.77;;;6.28;;
11305;SDS011;5708;50.660;6.778;2023-07-08T08:01:38;12.10;;;6.93;;
11305;SDS011;5708;50.660;6.778;2023-07-08T08:04:04;10.40;;;6.32;;
11305;SDS011;5708;50.660;6.778;2023-07-08T08:06:29;14.00;;;6.55;;
11305;SDS011;5708;50.660;6.778;2023-07-08T08:08:55;10.57;;;6.60;;
11305;SDS011;5708;50.660;6.778;2023-07-08T08:11:21;13.43;;;6.72;;
11305;SDS011;5708;50.660;6.778;2023-07-08T08:13:47;14.90;;;6.40;;
11305;SDS011;5708;50.660;6.778;2023-07-08T08:16:12;13.93;;;6.55;;
11305;SDS011;5708;50.660;6.778;2023-07-08T08:18:38;10.98;;;6.50;;
11305;SDS011;5708;50.660;6.778;2023-07-08T08:21:06;11.55;;;6.28;;
11305;SDS011;5708;50.660;6.778;2023-07-08T08:23:32;12.95;;;6.50;;
11305;SDS011;5708;50.660;6.778;2023-07-08T08:25:57;10.35;;;6.25;;
11305;SDS011;5708;50.660;6.778;2023-07-08T08:28:22;10.63;;;6.50;;
11305;SDS011;5708;50.660;6.778;2023-07-08T08:30:48;11.18;;;6.68;;
11305;SDS011;5708;50.660;6.778;2023-07-08T08:33:14;10.77;;;6.50;;
11305;SDS011;5708;50.660;6.778;2023-07-08T08:35:41;11.85;;;4.97;;
11305;SDS011;5708;50.660;6.778;2023-07-08T08:38:07;10.07;;;3.70;;
11305;SDS011;5708;50.660;6.778;2023-07-08T08:40:33;8.25;;;3.92;;
11305;SDS011;5708;50.660;6.778;2023-07-08T08:45:24;8.40;;;4.05;;
11305;SDS011;5708;50.660;6.778;2023-07-08T08:47:53;7.75;;;3.88;;
11305;SDS011;5708;50.660;6.778;2023-07-08T08:52:58;7.95;;;4.07;;
11305;SDS011;5708;50.660;6.778;2023-07-08T08:55:25;8.80;;;3.83;;
11305;SDS011;5708;50.660;6.778;2023-07-08T09:00:17;11.18;;;4.25;;
11305;SDS011;5708;50.660;6.778;2023-07-08T09:03:09;10.10;;;4.68;;
11305;SDS011;5708;50.660;6.778;2023-07-08T09:05:37;11.68;;;4.45;;
11305;SDS011;5708;50.660;6.778;2023-07-08T09:08:35;11.63;;;4.80;;
11305;SDS011;5708;50.660;6.778;2023-07-08T09:13:51;10.85;;;4.68;;
11305;SDS011;5708;50.660;6.778;2023-07-08T09:16:25;8.35;;;4.63;;
11305;SDS011;5708;50.660;6.778;2023-07-08T09:19:09;13.20;;;4.80;;
11305;SDS011;5708;50.660;6.778;2023-07-08T09:24:25;8.30;;;4.38;;
11305;SDS011;5708;50.660;6.778;2023-07-08T09:26:57;10.52;;;4.75;;
11305;SDS011;5708;50.660;6.778;2023-07-08T09:29:25;9.93;;;4.53;;
11305;SDS011;5708;50.660;6.778;2023-07-08T09:31:54;9.40;;;4.43;;
11305;SDS011;5708;50.660;6.778;2023-07-08T09:34:22;11.65;;;4.55;;
11305;SDS011;5708;50.660;6.778;2023-07-08T09:36:49;11.82;;;4.90;;
11305;SDS011;5708;50.660;6.778;2023-07-08T09:39:16;10.98;;;5.38;;
11305;SDS011;5708;50.660;6.778;2023-07-08T09:41:43;8.85;;;4.40;;
11305;SDS011;5708;50.660;6.778;2023-07-08T09:44:24;11.88;;;5.15;;
11305;SDS011;5708;50.660;6.778;2023-07-08T09:46:55;10.55;;;4.80;;
11305;SDS011;5708;50.660;6.778;2023-07-08T09:49:24;13.43;;;5.20;;
11305;SDS011;5708;50.660;6.778;2023-07-08T09:51:54;10.32;;;5.22;;
11305;SDS011;5708;50.660;6.778;2023-07-08T09:54:20;9.75;;;4.80;;
11305;SDS011;5708;50.660;6.778;2023-07-08T09:57:04;13.77;;;5.13;;
11305;SDS011;5708;50.660;6.778;2023-07-08T09:59:58;10.38;;;5.40;;
11305;SDS011;5708;50.660;6.778;2023-07-08T10:02:33;9.00;;;5.07;;
11305;SDS011;5708;50.660;6.778;2023-07-08T10:05:12;11.63;;;5.15;;
11305;SDS011;5708;50.660;6.778;2023-07-08T10:07:44;9.32;;;4.85;;
11305;SDS011;5708;50.660;6.778;2023-07-08T10:10:14;9.52;;;5.38;;
11305;SDS011;5708;50.660;6.778;2023-07-08T10:12:41;11.15;;;5.28;;
11305;SDS011;5708;50.660;6.778;2023-07-08T10:18:13;9.50;;;5.53;;
11305;SDS011;5708;50.660;6.778;2023-07-08T10:26:28;12.55;;;5.55;;
11305;SDS011;5708;50.660;6.778;2023-07-08T10:39:31;9.98;;;5.40;;
11305;SDS011;5708;50.660;6.778;2023-07-08T10:45:10;10.65;;;5.05;;
11305;SDS011;5708;50.660;6.778;2023-07-08T10:50:43;9.73;;;5.97;;
11305;SDS011;5708;50.660;6.778;2023-07-08T10:56:07;12.45;;;5.20;;
11305;SDS011;5708;50.660;6.778;2023-07-08T10:59:04;12.20;;;5.32;;
11305;SDS011;5708;50.660;6.778;2023-07-08T11:04:12;12.27;;;4.93;;
11305;SDS011;5708;50.660;6.778;2023-07-08T11:09:11;8.88;;;4.82;;
11305;SDS011;5708;50.660;6.778;2023-07-08T11:11:45;10.30;;;5.40;;
11305;SDS011;5708;50.660;6.778;2023-07-08T11:17:19;12.25;;;5.15;;
11305;SDS011;5708;50.660;6.778;2023-07-08T11:20:12;10.30;;;5.55;;
11305;SDS011;5708;50.660;6.778;2023-07-08T11:22:34;9.95;;;5.22;;
11305;SDS011;5708;50.660;6.778;2023-07-08T11:25:03;10.65;;;5.05;;
11305;SDS011;5708;50.660;6.778;2023-07-08T11:27:37;8.52;;;4.93;;
11305;SDS011;5708;50.660;6.778;2023-07-08T11:32:42;9.88;;;5.15;;
11305;SDS011;5708;50.660;6.778;2023-07-08T11:35:16;8.70;;;4.75;;
11305;SDS011;5708;50.660;6.778;2023-07-08T11:37:45;8.85;;;5.28;;
11305;SDS011;5708;50.660;6.778;2023-07-08T11:40:21;9.20;;;4.75;;
11305;SDS011;5708;50.660;6.778;2023-07-08T11:42:51;10.73;;;5.15;;
11305;SDS011;5708;50.660;6.778;2023-07-08T11:47:47;10.90;;;5.13;;
11305;SDS011;5708;50.660;6.778;2023-07-08T11:50:24;11.82;;;5.32;;
11305;SDS011;5708;50.660;6.778;2023-07-08T11:52:59;9.18;;;4.85;;
11305;SDS011;5708;50.660;6.778;2023-07-08T11:55:27;11.50;;;4.95;;
11305;SDS011;5708;50.660;6.778;2023-07-08T11:58:20;8.20;;;4.95;;
11305;SDS011;5708;50.660;6.778;2023-07-08T12:00:57;8.15;;;4.57;;
11305;SDS011;5708;50.660;6.778;2023-07-08T12:03:24;11.02;;;5.70;;
11305;SDS011;5708;50.660;6.778;2023-07-08T12:05:57;10.95;;;5.65;;
11305;SDS011;5708;50.660;6.778;2023-07-08T12:08:32;11.90;;;5.18;;
11305;SDS011;5708;50.660;6.778;2023-07-08T12:10:59;10.20;;;5.03;;
11305;SDS011;5708;50.660;6.778;2023-07-08T12:13:25;11.85;;;5.63;;
11305;SDS011;5708;50.660;6.778;2023-07-08T12:15:51;10.02;;;4.97;;
11305;SDS011;5708;50.660;6.778;2023-07-08T12:18:32;9.57;;;5.32;;
11305;SDS011;5708;50.660;6.778;2023-07-08T12:21:00;12.27;;;5.15;;
11305;SDS011;5708;50.660;6.778;2023-07-08T12:23:29;13.18;;;5.70;;
11305;SDS011;5708;50.660;6.778;2023-07-08T12:25:56;8.90;;;5.40;;
11305;SDS011;5708;50.660;6.778;2023-07-08T12:28:22;12.15;;;5.32;;
11305;SDS011;5708;50.660;6.778;2023-07-08T12:30:49;10.10;;;5.72;;
11305;SDS011;5708;50.660;6.778;2023-07-08T12:33:19;11.45;;;5.43;;
11305;SDS011;5708;50.660;6.778;2023-07-08T12:35:50;9.05;;;5.40;;
11305;SDS011;5708;50.660;6.778;2023-07-08T12:38:23;12.20;;;4.82;;
11305;SDS011;5708;50.660;6.778;2023-07-08T12:41:00;11.05;;;5.68;;
11305;SDS011;5708;50.660;6.778;2023-07-08T12:43:26;10.52;;;4.72;;
11305;SDS011;5708;50.660;6.778;2023-07-08T12:45:52;11.63;;;4.88;;
11305;SDS011;5708;50.660;6.778;2023-07-08T12:48:17;9.80;;;5.28;;
11305;SDS011;5708;50.660;6.778;2023-07-08T12:50:43;9.93;;;5.63;;
11305;SDS011;5708;50.660;6.778;2023-07-08T12:53:10;9.60;;;5.22;;
11305;SDS011;5708;50.660;6.778;2023-07-08T12:55:37;10.68;;;5.40;;
11305;SDS011;5708;50.660;6.778;2023-07-08T12:58:04;9.15;;;5.20;;
11305;SDS011;5708;50.660;6.778;2023-07-08T13:00:31;9.18;;;4.68;;
11305;SDS011;5708;50.660;6.778;2023-07-08T13:03:03;10.02;;;4.97;;
11305;SDS011;5708;50.660;6.778;2023-07-08T13:05:31;11.00;;;5.18;;
11305;SDS011;5708;50.660;6.778;2023-07-08T13:07:56;12.18;;;5.55;;
11305;SDS011;5708;50.660;6.778;2023-07-08T13:10:23;11.48;;;5.28;;
11305;SDS011;5708;50.660;6.778;2023-07-08T13:12:51;12.90;;;5.60;;
11305;SDS011;5708;50.660;6.778;2023-07-08T13:15:23;10.02;;;4.82;;
11305;SDS011;5708;50.660;6.778;2023-07-08T13:17:50;12.00;;;5.40;;
11305;SDS011;5708;50.660;6.778;2023-07-08T13:20:16;9.52;;;4.60;;
11305;SDS011;5708;50.660;6.778;2023-07-08T13:22:42;10.23;;;5.03;;
11305;SDS011;5708;50.660;6.778;2023-07-08T13:25:18;12.23;;;5.00;;
11305;SDS011;5708;50.660;6.778;2023-07-08T13:28:01;11.65;;;5.18;;
11305;SDS011;5708;50.660;6.778;2023-07-08T13:30:36;12.48;;;4.85;;
11305;SDS011;5708;50.660;6.778;2023-07-08T13:33:14;11.13;;;5.30;;
11305;SDS011;5708;50.660;6.778;2023-07-08T13:35:41;11.38;;;5.18;;
11305;SDS011;5708;50.660;6.778;2023-07-08T13:38:21;10.13;;;5.07;;
11305;SDS011;5708;50.660;6.778;2023-07-08T13:40:49;10.48;;;4.40;;
11305;SDS011;5708;50.660;6.778;2023-07-08T13:43:22;9.55;;;5.00;;
11305;SDS011;5708;50.660;6.778;2023-07-08T13:45:49;10.38;;;5.00;;
11305;SDS011;5708;50.660;6.778;2023-07-08T13:48:20;8.45;;;4.70;;
11305;SDS011;5708;50.660;6.778;2023-07-08T13:50:50;9.90;;;5.10;;
11305;SDS011;5708;50.660;6.778;2023-07-08T13:53:21;9.00;;;4.53;;
11305;SDS011;5708;50.660;6.778;2023-07-08T13:55:58;12.18;;;4.78;;
11305;SDS011;5708;50.660;6.778;2023-07-08T13:58:28;10.13;;;4.95;;
11305;SDS011;5708;50.660;6.778;2023-07-08T14:00:54;9.93;;;5.03;;
11305;SDS011;5708;50.660;6.778;2023-07-08T14:03:20;9.40;;;5.25;;
11305;SDS011;5708;50.660;6.778;2023-07-08T14:05:46;11.55;;;4.97;;
11305;SDS011;5708;50.660;6.778;2023-07-08T14:08:15;9.68;;;5.18;;
11305;SDS011;5708;50.660;6.778;2023-07-08T14:10:42;10.68;;;4.35;;
11305;SDS011;5708;50.660;6.778;2023-07-08T14:13:10;9.85;;;4.70;;
11305;SDS011;5708;50.660;6.778;2023-07-08T14:15:37;9.38;;;5.00;;
11305;SDS011;5708;50.660;6.778;2023-07-08T14:18:03;10.63;;;5.00;;
11305;SDS011;5708;50.660;6.778;2023-07-08T14:20:29;8.55;;;4.80;;
11305;SDS011;5708;50.660;6.778;2023-07-08T14:22:55;11.70;;;4.88;;
11305;SDS011;5708;50.660;6.778;2023-07-08T14:25:20;10.20;;;4.97;;
11305;SDS011;5708;50.660;6.778;2023-07-08T14:27:48;10.15;;;4.70;;
11305;SDS011;5708;50.660;6.778;2023-07-08T14:30:14;16.02;;;4.88;;
11305;SDS011;5708;50.660;6.778;2023-07-08T14:32:40;12.30;;;4.85;;
11305;SDS011;5708;50.660;6.778;2023-07-08T14:35:25;12.85;;;5.05;;
11305;SDS011;5708;50.660;6.778;2023-07-08T14:37:53;9.50;;;4.60;;
11305;SDS011;5708;50.660;6.778;2023-07-08T14:40:25;14.00;;;5.50;;
11305;SDS011;5708;50.660;6.778;2023-07-08T14:42:56;9.07;;;5.25;;
11305;SDS011;5708;50.660;6.778;2023-07-08T14:45:29;10.70;;;4.82;;
11305;SDS011;5708;50.660;6.778;2023-07-08T14:47:55;8.52;;;4.93;;
11305;SDS011;5708;50.660;6.778;2023-07-08T14:50:21;8.73;;;4.90;;
11305;SDS011;5708;50.660;6.778;2023-07-08T14:52:47;8.18;;;4.38;;
11305;SDS011;5708;50.660;6.778;2023-07-08T14:55:12;9.90;;;4.82;;
11305;SDS011;5708;50.660;6.778;2023-07-08T14:57:42;10.68;;;4.60;;
11305;SDS011;5708;50.660;6.778;2023-07-08T15:00:13;10.27;;;4.97;;
11305;SDS011;5708;50.660;6.778;2023-07-08T15:02:41;10.25;;;4.90;;
11305;SDS011;5708;50.660;6.778;2023-07-08T15:05:13;9.80;;;4.75;;
11305;SDS011;5708;50.660;6.778;2023-07-08T15:07:55;10.93;;;5.10;;
11305;SDS011;5708;50.660;6.778;2023-07-08T15:10:25;10.70;;;4.80;;
11305;SDS011;5708;50.660;6.778;2023-07-08T15:12:55;8.98;;;4.97;;
11305;SDS011;5708;50.660;6.778;2023-07-08T15:15:23;9.32;;;4.60;;
11305;SDS011;5708;50.660;6.778;2023-07-08T15:17:51;9.75;;;4.55;;
11305;SDS011;5708;50.660;6.778;2023-07-08T15:20:17;10.02;;;4.65;;
11305;SDS011;5708;50.660;6.778;2023-07-08T15:22:43;9.10;;;4.47;;
11305;SDS011;5708;50.660;6.778;2023-07-08T15:25:12;12.02;;;4.95;;
11305;SDS011;5708;50.660;6.778;2023-07-08T15:27:39;8.30;;;4.38;;
11305;SDS011;5708;50.660;6.778;2023-07-08T15:30:08;10.48;;;5.18;;
11305;SDS011;5708;50.660;6.778;2023-07-08T15:32:40;11.23;;;5.50;;
11305;SDS011;5708;50.660;6.778;2023-07-08T15:35:10;10.63;;;5.07;;
11305;SDS011;5708;50.660;6.778;2023-07-08T15:37:37;9.75;;;4.82;;
11305;SDS011;5708;50.660;6.778;2023-07-08T15:40:02;10.27;;;5.43;;
11305;SDS011;5708;50.660;6.778;2023-07-08T15:42:33;8.25;;;4.55;;
11305;SDS011;5708;50.660;6.778;2023-07-08T15:44:59;12.35;;;4.50;;
11305;SDS011;5708;50.660;6.778;2023-07-08T15:47:25;7.47;;;4.45;;
11305;SDS011;5708;50.660;6.778;2023-07-08T15:49:50;10.05;;;4.70;;
11305;SDS011;5708;50.660;6.778;2023-07-08T15:52:15;8.57;;;4.93;;
11305;SDS011;5708;50.660;6.778;2023-07-08T15:54:41;8.23;;;4.57;;
11305;SDS011;5708;50.660;6.778;2023-07-08T15:57:07;8.57;;;5.00;;
11305;SDS011;5708;50.660;6.778;2023-07-08T15:59:33;11.85;;;5.22;;